Time;durP1;ratioP1;P1;durP2;ratioP2;P2;SDS_P1;SDS_P2;PMS_P1;PMS_P2;Temp;Humidity;BMP_temperature;BMP_pressure;BME280_temperature;BME280_humidity;BME280_pressure;Samples;Min_cycle;Max_cycle;Signal;HPM_P1;HPM_P2
2022/07/04 00:02:07;;;;;;;;;2.00;2.00;;;;;21.05;44.75;101593.66;5017520;28;45389;-69
2022/07/04 00:04:32;;;;;;;;;3.33;1.00;;;;;21.00;44.52;101590.94;5026819;28;45348;-66
2022/07/04 00:06:58;;;;;;;;;3.33;2.00;;;;;20.70;45.11;101540.34;5016294;28;45511;-69
2022/07/04 00:09:23;;;;;;;;;2.67;2.67;;;;;21.05;45.08;101607.22;5016164;28;46071;-63
2022/07/04 00:11:48;;;;;;;;;2.67;1.67;;;;;20.98;44.80;101609.97;5016579;28;45401;-70
2022/07/04 00:14:14;;;;;;;;;1.00;1.00;;;;;21.06;45.13;101628.06;5014523;28;46673;-77
2022/07/04 00:16:39;;;;;;;;;2.00;2.00;;;;;20.65;45.16;101564.78;5016244;28;45419;-63
2022/07/04 00:19:04;;;;;;;;;1.00;1.00;;;;;20.76;45.29;101581.97;5018560;28;45454;-62
2022/07/04 00:21:30;;;;;;;;;1.00;0.00;;;;;20.83;44.79;101601.84;5016815;28;45521;-77
2022/07/04 00:23:55;;;;;;;;;2.33;0.67;;;;;20.77;45.01;101586.50;5018530;28;45321;-68
2022/07/04 00:26:20;;;;;;;;;1.00;1.00;;;;;20.82;44.92;101607.28;5018878;28;45278;-70
2022/07/04 00:28:46;;;;;;;;;0.00;0.00;;;;;20.94;44.70;101626.28;5018037;28;45417;-76
2022/07/04 00:31:11;;;;;;;;;0.00;0.00;;;;;20.77;44.81;101610.00;5019830;28;45449;-63
2022/07/04 00:33:36;;;;;;;;;0.33;0.33;;;;;20.62;44.80;101589.19;5019211;28;45344;-69
2022/07/04 00:36:02;;;;;;;;;0.67;0.00;;;;;20.75;45.10;101612.72;5018337;28;45495;-66
2022/07/04 00:38:28;;;;;;;;;0.00;0.00;;;;;20.82;45.13;101624.47;5016949;28;46395;-81
2022/07/04 00:40:53;;;;;;;;;0.33;0.33;;;;;20.62;44.99;101605.47;5017861;28;45586;-68
2022/07/04 00:43:27;;;;;;;;;1.33;1.33;;;;;20.63;45.24;101615.47;5017842;28;45428;-74
2022/07/04 00:45:53;;;;;;;;;0.00;0.00;;;;;20.77;44.90;101639.88;5019526;28;45354;-65
2022/07/04 00:48:18;;;;;;;;;0.00;0.00;;;;;20.77;45.22;101634.47;5019167;28;45937;-69
2022/07/04 00:50:48;;;;;;;;;0.00;0.00;;;;;20.62;45.29;101616.34;5019938;28;45549;-63
2022/07/04 00:53:18;;;;;;;;;0.67;0.67;;;;;20.71;45.05;101634.50;5019630;28;45513;-78
2022/07/04 00:55:44;;;;;;;;;0.00;0.00;;;;;20.33;45.17;101582.00;5019404;28;45478;-71
2022/07/04 00:58:12;;;;;;;;;2.00;2.00;;;;;20.67;45.42;101635.38;5024584;28;45840;-70
2022/07/04 01:00:38;;;;;;;;;1.00;1.00;;;;;20.48;45.31;101610.03;5019480;28;45422;-66
2022/07/04 01:03:03;;;;;;;;;1.33;0.67;;;;;20.47;45.32;101609.13;5018291;28;45450;-73
2022/07/04 01:05:29;;;;;;;;;0.00;0.00;;;;;20.65;45.27;101637.19;5018704;28;45671;-69
2022/07/04 01:07:54;;;;;;;;;0.00;0.00;;;;;20.36;45.06;101587.44;5014932;28;46287;-82
2022/07/04 01:10:19;;;;;;;;;4.00;4.00;;;;;20.21;45.77;101569.34;5015290;28;45432;-66
2022/07/04 01:12:45;;;;;;;;;0.67;0.67;;;;;20.58;45.22;101641.69;5007549;28;45363;-71
2022/07/04 01:15:10;;;;;;;;;0.67;0.67;;;;;20.48;45.00;101624.50;5014462;28;45552;-63
2022/07/04 01:17:36;;;;;;;;;1.00;1.00;;;;;20.21;45.07;101582.91;5014964;28;46093;-72
2022/07/04 01:20:02;;;;;;;;;1.00;1.00;;;;;20.49;45.03;101641.69;5016173;28;45620;-75
2022/07/04 01:22:28;;;;;;;;;0.33;0.33;;;;;20.32;45.27;101623.59;5014895;28;45459;-65
2022/07/04 01:24:53;;;;;;;;;1.00;1.00;;;;;20.41;45.14;101639.91;5015823;28;45312;-78
2022/07/04 01:27:18;;;;;;;;;0.00;0.00;;;;;20.41;45.28;101634.47;5014308;28;45316;-70
2022/07/04 01:29:44;;;;;;;;;3.00;0.00;;;;;20.38;45.29;101633.56;5014142;28;45749;-75
2022/07/04 01:32:11;;;;;;;;;1.00;1.00;;;;;20.32;45.12;101630.84;5014623;28;46161;-63
2022/07/04 01:34:36;;;;;;;;;0.00;0.00;;;;;20.33;44.74;101646.25;5016555;28;45643;-66
2022/07/04 01:37:02;;;;;;;;;0.00;0.00;;;;;20.31;44.98;101645.31;5015319;28;46909;-76
2022/07/04 01:39:28;;;;;;;;;2.00;0.67;;;;;20.29;45.23;101636.28;5014394;28;45541;-78
2022/07/04 01:41:54;;;;;;;;;0.00;0.00;;;;;20.27;44.86;101629.94;5015480;28;45504;-76
2022/07/04 01:44:20;;;;;;;;;0.00;0.00;;;;;20.22;44.79;101627.22;5014965;28;45514;-71
2022/07/04 01:46:45;;;;;;;;;3.00;0.00;;;;;19.80;44.66;101553.03;5014814;28;45644;-64
2022/07/04 01:49:10;;;;;;;;;0.00;0.00;;;;;20.33;45.14;101633.56;5014279;28;45509;-72
2022/07/04 01:51:43;;;;;;;;;0.00;0.00;;;;;20.06;44.96;101583.81;5014676;28;45340;-79
2022/07/04 01:54:09;;;;;;;;;1.33;1.33;;;;;20.25;45.04;101625.41;5011155;28;45413;-69
2022/07/04 01:56:34;;;;;;;;;0.00;0.00;;;;;20.22;45.26;101619.09;5015178;28;45498;-69
2022/07/04 01:59:01;;;;;;;;;1.00;0.00;;;;;20.28;45.05;101629.94;5014500;28;45556;-69
2022/07/04 02:01:29;;;;;;;;;1.00;1.00;;;;;20.06;45.08;101594.66;5015438;28;45662;-79
2022/07/04 02:03:57;;;;;;;;;0.00;0.00;;;;;20.19;45.16;101625.41;5012652;28;45246;-80
2022/07/04 02:06:22;;;;;;;;;0.00;0.00;;;;;19.92;45.16;101582.00;5015103;28;46073;-81
2022/07/04 02:13:01;;;;;;;;;2.67;1.00;;;;;19.96;45.38;101600.97;5013185;28;45498;-64
2022/07/04 02:14:17;;;;;;;;;0.00;0.00;;;;;19.86;45.30;101586.50;5015507;28;45292;-69
2022/07/04 02:16:42;;;;;;;;;0.00;0.00;;;;;20.05;45.60;101628.13;5016017;28;46087;-70
2022/07/04 02:19:08;;;;;;;;;0.00;0.00;;;;;19.73;45.66;101587.34;5017416;28;45438;-69
2022/07/04 02:21:33;;;;;;;;;0.00;0.00;;;;;20.00;45.78;101612.75;5011327;28;45651;-78
2022/07/04 02:23:58;;;;;;;;;1.00;0.00;;;;;19.96;45.79;101608.19;5014295;28;45432;-63
2022/07/04 02:26:23;;;;;;;;;0.00;0.00;;;;;19.90;45.78;101611.81;5016067;28;45510;-68
2022/07/04 02:28:49;;;;;;;;;0.00;0.00;;;;;19.97;45.87;101624.47;5016863;28;45359;-75
2022/07/04 02:31:14;;;;;;;;;0.00;0.00;;;;;19.75;45.80;101581.91;5019165;28;45490;-69
2022/07/04 02:33:39;;;;;;;;;0.00;0.00;;;;;19.78;45.72;101585.59;5016021;28;45473;-68
2022/07/04 02:36:05;;;;;;;;;0.67;0.00;;;;;19.75;46.08;101587.34;5015786;28;45638;-82
2022/07/04 02:38:30;;;;;;;;;0.00;0.00;;;;;19.91;46.24;101616.31;5016043;28;45360;-69
2022/07/04 02:40:55;;;;;;;;;0.00;0.00;;;;;19.93;46.21;101628.09;5016996;28;45405;-73
2022/07/04 02:43:24;;;;;;;;;0.00;0.00;;;;;19.71;46.09;101581.00;5012452;28;45438;-68
2022/07/04 02:45:49;;;;;;;;;2.33;1.00;;;;;19.92;46.43;101626.28;5015140;28;46221;-69
2022/07/04 02:48:14;;;;;;;;;0.00;0.00;;;;;19.73;46.57;101592.75;5013238;28;45497;-71
2022/07/04 02:50:40;;;;;;;;;1.00;1.00;;;;;19.96;46.24;101628.09;5014722;28;45817;-63
2022/07/04 02:53:05;;;;;;;;;1.33;1.00;;;;;19.57;46.63;101562.03;5016204;28;45695;-69
2022/07/04 02:55:31;;;;;;;;;1.33;0.00;;;;;19.90;46.55;101625.38;5014453;28;46559;-77
2022/07/04 02:57:56;;;;;;;;;0.33;0.33;;;;;19.73;46.73;101605.41;5013753;28;45506;-81
2022/07/04 03:00:21;;;;;;;;;1.00;1.00;;;;;19.69;47.04;101613.53;5014813;28;45558;-63
2022/07/04 03:02:46;;;;;;;;;1.00;1.00;;;;;19.44;47.09;101582.75;5014262;28;45418;-68
2022/07/04 03:05:12;;;;;;;;;1.00;0.00;;;;;19.68;47.26;101635.22;5012861;28;45463;-78
2022/07/04 03:07:37;;;;;;;;;1.67;0.00;;;;;19.43;47.29;101596.31;5014795;28;45459;-65
2022/07/04 03:10:03;;;;;;;;;0.00;0.00;;;;;19.13;47.24;101544.72;5014052;28;45501;-66
2022/07/04 03:12:28;;;;;;;;;1.33;1.00;;;;;19.40;47.06;101590.88;5015849;28;45498;-73
2022/07/04 03:14:53;;;;;;;;;2.00;1.00;;;;;19.57;47.40;101632.50;5014320;28;52462;-81
2022/07/04 03:17:19;;;;;;;;;0.00;0.00;;;;;19.63;47.22;101642.44;5010398;28;45559;-76
2022/07/04 03:19:45;;;;;;;;;0.00;0.00;;;;;19.41;47.31;101599.00;5014299;28;45362;-68
2022/07/04 03:22:10;;;;;;;;;0.33;0.33;;;;;19.59;47.47;101649.66;5015395;28;45493;-63
2022/07/04 03:24:36;;;;;;;;;2.67;0.00;;;;;19.38;47.49;101628.78;5027671;28;46851;-75
2022/07/04 03:27:01;;;;;;;;;0.00;0.00;;;;;19.56;47.61;101644.22;5010729;28;45291;-73
2022/07/04 03:29:27;;;;;;;;;2.00;1.00;;;;;19.51;47.41;101638.78;5012967;28;45632;-68
2022/07/04 03:31:52;;;;;;;;;0.00;0.00;;;;;19.57;47.30;101642.41;5013358;28;45568;-76
2022/07/04 03:34:18;;;;;;;;;2.00;0.67;;;;;19.17;47.44;101580.84;5014260;28;45767;-64
2022/07/04 03:36:43;;;;;;;;;0.33;0.00;;;;;19.30;47.61;101611.59;5014117;28;45393;-79
2022/07/04 03:39:08;;;;;;;;;1.00;1.00;;;;;19.41;47.91;101646.88;5013865;28;45471;-67
2022/07/04 03:41:34;;;;;;;;;1.00;0.00;;;;;19.02;48.10;101594.31;5018636;28;45513;-79
2022/07/04 03:43:59;;;;;;;;;1.00;1.00;;;;;19.23;47.88;101642.28;5014494;28;45991;-64
2022/07/04 03:46:24;;;;;;;;;4.00;1.00;;;;;19.30;48.24;101649.53;5011236;28;45523;-70
2022/07/04 03:48:50;;;;;;;;;0.00;0.00;;;;;18.78;48.38;101575.22;5013577;28;45609;-69
2022/07/04 03:51:16;;;;;;;;;0.33;0.33;;;;;19.05;48.30;101606.06;5014327;28;45631;-63
2022/07/04 03:53:42;;;;;;;;;2.00;0.00;;;;;19.22;48.44;101635.97;5012816;28;46103;-76
2022/07/04 03:56:08;;;;;;;;;2.67;1.00;;;;;19.28;48.49;101645.91;5013954;28;45512;-74
2022/07/04 03:58:33;;;;;;;;;1.00;1.00;;;;;19.28;48.70;101643.22;5014641;28;45364;-82
2022/07/04 04:00:59;;;;;;;;;0.00;0.00;;;;;19.21;48.60;101634.16;5017651;28;45370;-69
2022/07/04 04:06:08;;;;;;;;;1.00;1.00;;;;;19.23;48.65;101647.69;5018536;28;45733;-83
2022/07/04 04:08:34;;;;;;;;;1.33;1.00;;;;;19.07;48.68;101611.50;5015454;28;45504;-63
2022/07/04 04:10:59;;;;;;;;;1.00;1.00;;;;;19.09;48.61;101606.97;5015823;28;45423;-72
2022/07/04 04:13:24;;;;;;;;;0.00;0.00;;;;;19.25;48.64;101635.97;5016666;28;46182;-75
2022/07/04 04:15:50;;;;;;;;;1.00;1.00;;;;;19.24;48.58;101644.09;5015505;28;48813;-68
2022/07/04 04:18:15;;;;;;;;;1.00;1.00;;;;;19.07;48.69;101611.50;5015936;28;45383;-79
2022/07/04 04:20:41;;;;;;;;;3.33;2.67;;;;;19.33;48.66;101660.38;5012835;28;45395;-71
2022/07/04 04:23:06;;;;;;;;;2.00;2.00;;;;;19.24;48.60;101665.78;5012194;28;45524;-63
2022/07/04 04:25:32;;;;;;;;;3.33;2.00;;;;;18.86;48.80;101602.38;5013945;28;45476;-66
2022/07/04 04:27:57;;;;;;;;;3.00;2.00;;;;;18.74;49.11;101583.28;5013788;28;45700;-80
2022/07/04 04:30:23;;;;;;;;;3.00;3.00;;;;;19.22;49.08;101671.19;5014938;28;45593;-68
2022/07/04 04:32:48;;;;;;;;;1.33;1.33;;;;;19.18;49.13;101660.31;5013212;28;45489;-72
2022/07/04 04:35:13;;;;;;;;;2.00;2.00;;;;;19.27;48.78;101679.31;5014393;28;45352;-75
2022/07/04 04:37:39;;;;;;;;;3.33;2.00;;;;;18.96;49.02;101628.59;5015576;28;45418;-65
2022/07/04 04:40:05;;;;;;;;;1.00;1.00;;;;;19.15;49.17;101667.53;5017690;28;45378;-63
2022/07/04 04:42:30;;;;;;;;;3.67;1.67;;;;;19.13;49.48;101666.59;5016218;28;45820;-74
2022/07/04 04:44:55;;;;;;;;;0.00;0.00;;;;;18.92;49.32;101632.19;5017696;28;45362;-82
2022/07/04 04:47:21;;;;;;;;;2.00;1.67;;;;;18.90;49.76;101638.50;5016685;28;46145;-79
2022/07/04 04:49:47;;;;;;;;;2.00;2.00;;;;;19.03;49.78;101653.03;5016881;28;45513;-79
2022/07/04 04:52:12;;;;;;;;;1.67;1.67;;;;;18.94;49.48;101627.69;5016989;28;45525;-66
2022/07/04 04:54:38;;;;;;;;;3.00;1.00;;;;;19.23;49.49;101678.41;5014730;28;45502;-79
2022/07/04 04:57:03;;;;;;;;;5.00;2.00;;;;;19.16;49.81;101668.44;5017481;28;45395;-73
2022/07/04 04:59:29;;;;;;;;;4.00;1.00;;;;;19.14;49.74;101659.41;5016953;28;45309;-63
2022/07/04 05:01:56;;;;;;;;;2.33;1.00;;;;;19.08;49.76;101643.13;5017994;28;46914;-73
2022/07/04 05:04:21;;;;;;;;;3.00;2.67;;;;;19.25;49.70;101681.13;5017392;28;45320;-63
2022/07/04 05:06:46;;;;;;;;;3.00;1.67;;;;;18.99;49.90;101630.44;5014113;28;46220;-68
2022/07/04 05:09:12;;;;;;;;;11.00;9.67;;;;;18.99;49.93;101633.16;5017497;28;45411;-80
2022/07/04 05:11:37;;;;;;;;;7.67;5.67;;;;;18.99;49.98;101633.16;5016996;28;46303;-72
2022/07/04 05:14:03;;;;;;;;;3.33;3.00;;;;;19.27;50.16;101673.91;5017112;28;45450;-73
2022/07/04 05:16:28;;;;;;;;;3.00;3.00;;;;;19.24;50.30;101677.50;5017286;28;45438;-70
2022/07/04 05:18:54;;;;;;;;;5.00;4.00;;;;;19.24;50.15;101682.03;5019563;28;45385;-67
2022/07/04 05:21:19;;;;;;;;;20.50;17.50;;;;;19.15;50.21;101658.50;5016431;28;45513;-64
2022/07/04 05:23:45;;;;;;;;;6.75;6.75;;;;;19.27;50.89;101668.47;5013088;28;45358;-63
2022/07/04 05:26:10;;;;;;;;;3.00;2.67;;;;;19.28;51.08;101671.19;5016994;28;45609;-69
2022/07/04 05:28:35;;;;;;;;;5.50;5.50;;;;;19.03;51.08;101640.38;5013755;28;45454;-64
2022/07/04 05:31:01;;;;;;;;;4.67;2.00;;;;;19.24;50.95;101671.19;5027487;28;48846;-70
2022/07/04 05:33:26;;;;;;;;;7.00;6.00;;;;;19.02;51.03;101640.34;5031371;28;45596;-63
2022/07/04 05:35:51;;;;;;;;;4.67;3.00;;;;;19.25;50.91;101668.47;5034237;28;45148;-80
2022/07/04 05:38:16;;;;;;;;;2.67;2.67;;;;;18.94;51.26;101619.56;5035549;28;45117;-65
2022/07/04 05:40:42;;;;;;;;;4.33;3.33;;;;;19.25;51.43;101679.31;5019956;28;46314;-67
2022/07/04 05:43:07;;;;;;;;;4.67;4.00;;;;;19.24;51.70;101673.91;5019332;28;45497;-62
2022/07/04 05:45:32;;;;;;;;;4.00;2.00;;;;;19.25;51.19;101673.88;5021496;28;45300;-62
2022/07/04 05:47:58;;;;;;;;;16.75;15.00;;;;;19.23;51.13;101667.56;5030703;28;45354;-71
2022/07/04 05:50:23;;;;;;;;;18.75;15.00;;;;;19.00;51.37;101626.81;5034426;28;49758;-63
2022/07/04 05:52:48;;;;;;;;;5.00;5.00;;;;;18.95;51.33;101615.94;5035541;28;45091;-69
2022/07/04 05:55:14;;;;;;;;;8.33;6.00;;;;;19.35;51.00;101674.84;5032724;28;45603;-63
2022/07/04 05:57:39;;;;;;;;;5.67;3.00;;;;;19.38;50.91;101668.53;5032884;28;45241;-68
2022/07/04 06:00:05;;;;;;;;;4.00;2.33;;;;;19.37;50.84;101661.31;5032084;28;45620;-68
2022/07/04 06:02:31;;;;;;;;;2.67;2.67;;;;;18.81;50.24;101563.50;5019169;28;45594;-72
2022/07/04 06:04:56;;;;;;;;;5.00;4.00;;;;;19.43;50.62;101670.38;5020050;28;45477;-61
2022/07/04 06:07:21;;;;;;;;;5.67;5.67;;;;;19.45;50.72;101668.59;5015918;28;45434;-68
2022/07/04 06:09:47;;;;;;;;;4.00;4.00;;;;;19.55;50.45;101683.09;5016572;28;45471;-67
2022/07/04 06:12:12;;;;;;;;;8.50;8.50;;;;;19.52;50.99;101669.53;5026454;28;45108;-79
2022/07/04 06:14:38;;;;;;;;;9.50;7.75;;;;;19.39;50.82;101641.47;5016895;28;45312;-72
2022/07/04 06:17:03;;;;;;;;;4.00;4.00;;;;;19.47;50.48;101630.66;5014980;28;45430;-67
2022/07/04 06:19:28;;;;;;;;;3.33;2.00;;;;;19.58;49.42;101642.41;5014307;28;46167;-63
2022/07/04 06:21:54;;;;;;;;;5.67;2.33;;;;;19.83;49.32;101678.72;5014121;28;45269;-63
2022/07/04 06:24:19;;;;;;;;;7.67;5.00;;;;;19.68;49.41;101665.03;5028557;28;45413;-76
2022/07/04 06:26:45;;;;;;;;;4.00;4.00;;;;;19.80;49.30;101678.69;5024829;28;45383;-70
2022/07/04 06:29:10;;;;;;;;;3.67;3.67;;;;;19.70;48.91;101647.91;5013695;28;45754;-62
2022/07/04 06:31:35;;;;;;;;;32.00;24.25;;;;;19.94;49.83;101681.44;5013997;28;45966;-63
2022/07/04 06:36:47;;;;;;;;;6.00;4.67;;;;;19.86;48.21;101650.66;5018915;28;45453;-69
2022/07/04 06:39:13;;;;;;;;;7.67;6.00;;;;;19.85;47.92;101647.06;5013679;28;45388;-70
2022/07/04 06:41:38;;;;;;;;;24.25;19.25;;;;;20.16;48.41;101685.13;5013628;28;45416;-70
2022/07/04 06:44:04;;;;;;;;;7.67;7.67;;;;;19.77;47.95;101610.00;5014305;28;45344;-69
2022/07/04 06:46:29;;;;;;;;;5.00;5.00;;;;;20.00;48.11;101639.88;5014389;28;45353;-64
2022/07/04 06:48:55;;;;;;;;;6.67;6.67;;;;;20.35;47.77;101675.16;5013833;28;47096;-66
2022/07/04 06:51:20;;;;;;;;;20.75;18.50;;;;;20.09;47.61;101625.41;5014014;28;46233;-66
2022/07/04 06:53:45;;;;;;;;;15.50;13.25;;;;;20.46;47.05;101690.56;5014098;28;45462;-75
2022/07/04 06:56:11;;;;;;;;;6.33;6.33;;;;;20.51;46.84;101688.75;5014014;28;45430;-64
2022/07/04 06:58:37;;;;;;;;;7.00;4.67;;;;;20.03;46.59;101597.38;5013726;28;45310;-73
2022/07/04 07:01:02;;;;;;;;;5.67;3.00;;;;;20.20;46.47;101629.94;5012945;28;45501;-61
2022/07/04 07:03:28;;;;;;;;;3.67;3.67;;;;;20.63;46.27;101694.22;5012472;28;45773;-73
2022/07/04 07:05:56;;;;;;;;;3.33;1.00;;;;;20.30;46.26;101649.84;5014093;28;45610;-68
2022/07/04 07:08:21;;;;;;;;;8.00;8.00;;;;;20.58;46.17;101687.84;5014027;28;46149;-69
2022/07/04 07:10:46;;;;;;;;;4.33;3.00;;;;;20.67;45.93;101704.16;5014427;28;45402;-71
2022/07/04 07:13:12;;;;;;;;;2.00;2.00;;;;;20.63;45.98;101686.06;5014323;28;45449;-74
2022/07/04 07:15:37;;;;;;;;;10.67;6.33;;;;;20.78;45.68;101702.34;5015177;28;45524;-69
2022/07/04 07:18:04;;;;;;;;;3.33;3.33;;;;;20.70;45.25;101671.56;5015451;28;45569;-75
2022/07/04 07:20:29;;;;;;;;;3.00;3.00;;;;;20.92;45.58;101712.28;5016801;28;45474;-63
2022/07/04 07:22:55;;;;;;;;;5.00;2.00;;;;;20.62;44.87;101643.50;5014285;28;45473;-66
2022/07/04 07:25:20;;;;;;;;;6.00;4.00;;;;;20.85;45.15;101665.22;5016626;28;45297;-71
2022/07/04 07:27:45;;;;;;;;;2.00;0.67;;;;;21.19;45.33;101708.66;5014886;28;45536;-70
2022/07/04 07:30:17;;;;;;;;;5.00;3.00;;;;;21.16;44.60;101690.53;5014903;28;45418;-63
2022/07/04 07:32:42;;;;;;;;;5.00;5.00;;;;;21.32;44.08;101693.22;5015554;28;45378;-78
2022/07/04 07:35:08;;;;;;;;;5.00;5.00;;;;;21.17;44.03;101658.84;5015731;28;45458;-73
2022/07/04 07:37:33;;;;;;;;;2.00;2.00;;;;;21.38;43.38;101704.06;5015079;28;46664;-75
2022/07/04 07:39:58;;;;;;;;;2.33;2.33;;;;;21.32;43.69;101705.00;5014634;28;45570;-69
2022/07/04 07:42:24;;;;;;;;;2.00;2.00;;;;;21.44;43.39;101690.44;5012986;28;45431;-72
2022/07/04 07:44:50;;;;;;;;;4.00;3.00;;;;;21.53;43.14;101684.09;5016505;28;45344;-66
2022/07/04 07:47:15;;;;;;;;;1.00;1.00;;;;;21.49;43.15;101666.00;5013240;28;46053;-74
2022/07/04 07:49:41;;;;;;;;;6.00;6.00;;;;;21.66;42.97;101665.91;5013490;28;45457;-74
2022/07/04 07:52:07;;;;;;;;;4.00;2.67;;;;;21.67;42.31;101635.09;5008264;28;45437;-72
2022/07/04 07:54:32;;;;;;;;;2.00;2.00;;;;;22.05;41.58;101677.50;5013401;28;45372;-73
2022/07/04 07:56:57;;;;;;;;;1.00;1.00;;;;;22.18;41.41;101687.38;5012881;28;46113;-68
2022/07/04 07:59:23;;;;;;;;;3.00;3.00;;;;;22.17;41.00;101684.66;5012776;28;45457;-69
2022/07/04 08:01:48;;;;;;;;;5.33;3.33;;;;;21.96;41.17;101650.31;5012922;28;45600;-67
2022/07/04 08:06:58;;;;;;;;;12.25;11.00;;;;;22.19;41.47;101691.00;5012726;28;45347;-66
2022/07/04 08:09:23;;;;;;;;;5.00;2.00;;;;;22.14;41.08;101669.28;5013020;28;45300;-69
2022/07/04 08:11:48;;;;;;;;;4.00;4.00;;;;;22.32;41.35;101684.59;5014007;28;45315;-66
2022/07/04 08:14:14;;;;;;;;;3.33;3.33;;;;;22.26;40.96;101660.13;5016592;28;45642;-69
2022/07/04 08:16:40;;;;;;;;;3.67;3.67;;;;;22.30;41.12;101655.59;5016049;28;49545;-64
2022/07/04 08:19:05;;;;;;;;;3.67;3.67;;;;;22.37;40.50;101669.16;5016384;28;45494;-72
2022/07/04 08:21:30;;;;;;;;;2.33;2.33;;;;;22.53;40.70;101672.63;5016211;28;45473;-68
2022/07/04 08:23:56;;;;;;;;;2.33;2.33;;;;;22.51;40.45;101652.69;5016833;28;45569;-70
2022/07/04 08:26:22;;;;;;;;;5.33;4.33;;;;;22.70;40.29;101668.84;5016715;28;45939;-68
2022/07/04 08:28:47;;;;;;;;;6.33;6.00;;;;;22.81;40.45;101675.09;5016067;28;45417;-70
2022/07/04 08:31:12;;;;;;;;;5.00;3.00;;;;;22.64;39.86;101658.94;5016032;28;45524;-67
2022/07/04 08:33:38;;;;;;;;;5.33;4.00;;;;;22.63;39.64;101674.34;5016507;28;45434;-69
2022/07/04 08:36:04;;;;;;;;;4.00;4.00;;;;;22.39;40.12;101644.59;5016341;28;46103;-67
2022/07/04 08:38:29;;;;;;;;;2.00;2.00;;;;;22.43;39.76;101677.25;5015855;28;45521;-68
2022/07/04 08:41:01;;;;;;;;;4.00;2.33;;;;;22.35;40.04;101654.63;5016538;28;45781;-67
2022/07/04 08:43:28;;;;;;;;;8.33;6.00;;;;;22.19;40.66;101647.44;5016147;28;45590;-64
2022/07/04 08:45:54;;;;;;;;;2.67;2.67;;;;;22.20;40.55;101644.72;5015901;28;46014;-65
2022/07/04 08:48:24;;;;;;;;;2.33;2.00;;;;;22.34;40.25;101646.47;5015536;28;45452;-64
2022/07/04 08:50:54;;;;;;;;;2.00;1.00;;;;;22.40;40.04;101640.97;5015788;28;45495;-66
2022/07/04 08:53:20;;;;;;;;;2.33;2.33;;;;;22.57;39.98;101660.81;5016827;28;45581;-74
2022/07/04 08:58:33;;;;;;;;;3.00;3.00;;;;;22.84;39.44;101652.38;5022566;28;45668;-68
2022/07/04 09:01:04;;;;;;;;;3.00;3.00;;;;;22.89;39.37;101661.41;5015906;28;45433;-68
2022/07/04 09:03:30;;;;;;;;;2.33;2.33;;;;;22.74;39.15;101621.59;5017495;28;45362;-66
2022/07/04 09:05:57;;;;;;;;;4.00;4.00;;;;;22.82;39.05;101634.22;5016204;28;45537;-65
2022/07/04 09:08:23;;;;;;;;;2.00;1.67;;;;;22.99;38.97;101641.31;5015223;28;45392;-67
2022/07/04 09:10:50;;;;;;;;;4.33;4.33;;;;;23.10;38.78;101635.75;5015915;28;45464;-73
2022/07/04 09:13:19;;;;;;;;;9.00;7.67;;;;;22.85;38.62;101567.91;5015649;28;45224;-65
2022/07/04 09:15:46;;;;;;;;;3.00;3.00;;;;;23.35;38.21;101634.56;5015389;28;46586;-69
2022/07/04 09:18:22;;;;;;;;;2.00;2.00;;;;;23.52;37.10;101636.16;5015238;28;45342;-66
2022/07/04 09:20:48;;;;;;;;;1.33;1.33;;;;;23.52;36.67;101614.34;5019277;28;45474;-72
2022/07/04 09:23:23;;;;;;;;;2.33;1.00;;;;;23.73;36.52;101637.72;5019398;28;45397;-67
2022/07/04 09:26:06;;;;;;;;;9.67;9.67;;;;;23.70;36.56;101625.00;5013273;28;47558;-70
2022/07/04 09:28:32;;;;;;;;;8.00;8.00;;;;;23.73;36.74;101624.94;5010235;28;45439;-70
2022/07/04 09:30:58;;;;;;;;;2.00;2.00;;;;;23.81;36.26;101626.66;5014687;28;45465;-69
2022/07/04 09:33:44;;;;;;;;;7.00;6.00;;;;;23.79;36.51;101610.34;5015333;28;45359;-69
2022/07/04 09:36:13;;;;;;;;;4.00;2.67;;;;;23.79;36.49;101604.88;5014409;28;45622;-69
2022/07/04 09:38:39;;;;;;;;;9.00;7.67;;;;;23.89;36.32;101608.38;5014610;28;45359;-69
2022/07/04 09:44:03;;;;;;;;;2.33;2.00;;;;;24.02;36.04;101630.94;5015394;28;45408;-69
2022/07/04 09:46:29;;;;;;;;;5.00;4.33;;;;;23.58;35.72;101556.06;5014763;28;45441;-69
2022/07/04 09:48:54;;;;;;;;;6.33;6.00;;;;;23.89;35.70;101627.47;5013067;28;45397;-69
2022/07/04 09:51:36;;;;;;;;;5.67;5.67;;;;;23.88;35.89;101625.69;5015268;28;45555;-70
2022/07/04 09:54:16;;;;;;;;;2.00;2.00;;;;;23.98;35.86;101634.66;5010205;28;45515;-65
2022/07/04 09:56:46;;;;;;;;;4.00;2.00;;;;;24.07;35.29;101629.97;5014328;28;45487;-65
2022/07/04 09:59:14;;;;;;;;;2.00;2.00;;;;;24.10;35.07;101629.91;5014350;28;45565;-65
2022/07/04 10:01:39;;;;;;;;;3.00;2.00;;;;;24.07;34.31;101642.69;5014569;28;45486;-67
2022/07/04 10:04:06;;;;;;;;;2.00;2.00;;;;;24.02;34.58;101640.06;5014580;28;45516;-67
2022/07/04 10:06:33;;;;;;;;;3.00;3.00;;;;;24.00;33.88;101630.97;5014444;28;45327;-65
2022/07/04 10:09:28;;;;;;;;;13.00;11.67;;;;;24.13;33.85;101633.50;5014234;28;45438;-64
2022/07/04 10:11:53;;;;;;;;;3.67;2.00;;;;;24.12;33.36;101626.25;5011510;28;45475;-69
2022/07/04 10:14:19;;;;;;;;;2.00;2.00;;;;;24.23;33.07;101630.59;5007845;28;45400;-66
2022/07/04 10:16:44;;;;;;;;;2.00;2.00;;;;;24.27;32.72;101637.81;5013965;28;46119;-67
2022/07/04 10:19:12;;;;;;;;;2.00;2.00;;;;;24.27;32.74;101632.34;5014324;28;45466;-66
2022/07/04 10:21:37;;;;;;;;;3.33;1.33;;;;;24.33;32.91;101625.88;5014527;28;45516;-66
2022/07/04 10:24:03;;;;;;;;;3.00;3.00;;;;;24.21;32.56;101598.78;5014700;28;45451;-65
2022/07/04 10:26:29;;;;;;;;;1.00;1.00;;;;;24.30;32.05;101606.81;5013790;28;46208;-67
2022/07/04 10:28:55;;;;;;;;;1.00;1.00;;;;;24.46;32.35;101626.56;5013872;28;45444;-66
2022/07/04 10:31:24;;;;;;;;;2.67;2.00;;;;;24.41;32.41;101601.19;5013963;28;45531;-66
2022/07/04 10:33:50;;;;;;;;;3.00;3.00;;;;;24.52;32.86;101622.81;5014215;28;45444;-68
2022/07/04 10:36:21;;;;;;;;;7.33;7.33;;;;;24.59;32.30;101616.38;5013869;28;46099;-65
2022/07/04 10:38:54;;;;;;;;;3.00;2.00;;;;;24.66;31.82;101620.78;5013923;28;45379;-65
2022/07/04 10:41:21;;;;;;;;;3.00;2.33;;;;;24.42;31.48;101573.84;5014076;28;45424;-66
2022/07/04 10:44:00;;;;;;;;;3.00;2.00;;;;;24.67;31.55;101608.94;5014206;28;45465;-65
2022/07/04 10:46:28;;;;;;;;;3.33;2.33;;;;;24.77;31.09;101626.97;5013603;28;47121;-68
2022/07/04 10:49:06;;;;;;;;;2.67;1.33;;;;;24.76;31.04;101622.41;5007011;28;45549;-67
2022/07/04 10:51:41;;;;;;;;;4.00;2.00;;;;;24.80;31.23;101612.34;5010204;28;45446;-69
2022/07/04 10:54:11;;;;;;;;;2.67;2.67;;;;;24.88;30.87;101617.66;5013918;28;45414;-66
2022/07/04 10:56:57;;;;;;;;;1.67;1.67;;;;;24.85;30.50;101621.38;5013404;28;46087;-66
2022/07/04 10:59:28;;;;;;;;;3.33;3.00;;;;;24.83;31.47;101609.53;5019244;28;45625;-65
2022/07/04 11:02:16;;;;;;;;;3.33;2.33;;;;;24.89;31.34;101612.16;5017317;28;45300;-65
2022/07/04 11:05:04;;;;;;;;;3.00;2.00;;;;;24.88;31.34;101606.72;5009065;28;45806;-65
2022/07/04 11:07:29;;;;;;;;;2.00;2.00;;;;;25.04;31.20;101613.69;5011254;28;46980;-65
2022/07/04 11:10:13;;;;;;;;;6.33;6.00;;;;;25.05;32.24;101612.75;5014328;28;46225;-64
2022/07/04 11:12:53;;;;;;;;;4.33;3.67;;;;;24.99;31.66;101604.69;5013683;28;45387;-66
2022/07/04 11:15:40;;;;;;;;;6.67;3.00;;;;;24.90;31.71;101607.63;5014183;28;45438;-68
2022/07/04 11:18:10;;;;;;;;;2.00;2.00;;;;;24.88;32.25;101610.38;5002830;28;45565;-66
2022/07/04 11:20:38;;;;;;;;;0.00;0.00;;;;;24.86;32.11;101606.75;5012885;28;45339;-66
2022/07/04 11:23:04;;;;;;;;;9.50;8.75;;;;;24.80;32.25;101607.78;5013140;28;45502;-71
2022/07/04 11:25:30;;;;;;;;;4.00;1.67;;;;;24.70;31.90;101605.22;5013374;28;45518;-64
2022/07/04 11:27:55;;;;;;;;;1.00;1.00;;;;;24.67;32.45;101602.59;5012890;28;45511;-66
2022/07/04 11:30:20;;;;;;;;;2.00;2.00;;;;;24.68;32.74;101610.72;5013765;28;45734;-65
2022/07/04 11:32:45;;;;;;;;;2.33;2.33;;;;;24.70;32.19;101594.31;5013074;28;45674;-66
2022/07/04 11:35:11;;;;;;;;;4.00;2.00;;;;;24.64;32.50;101570.75;5013529;28;45379;-67
2022/07/04 11:37:36;;;;;;;;;2.00;2.00;;;;;24.80;32.50;101583.19;5012899;28;46369;-65
2022/07/04 11:45:50;;;;;;;;;2.67;2.67;;;;;24.77;32.47;101590.53;5013869;28;45470;-66